Time;durP1;ratioP1;P1;durP2;ratioP2;P2;SDS_P1;SDS_P2;PMS_P1;PMS_P2;Temp;Humidity;BMP_temperature;BMP_pressure;BME280_temperature;BME280_humidity;BME280_pressure;Samples;Min_cycle;Max_cycle;Signal;HPM_P1;HPM_P2
2022/01/11 00:00:50;;;;;;;;;;;;;;;8.49;35.38;99614.84;4481905;32;34354;-90
2022/01/11 00:03:18;;;;;;;;;;;;;;;8.39;35.54;99618.00;4482277;32;33759;-91
2022/01/11 00:08:18;;;;;;;;;;;;;;;8.37;35.26;99620.53;4482054;32;34552;-90
2022/01/11 00:10:54;;;;;;;;;;;;;;;8.48;35.19;99624.28;4482193;32;34495;-91
2022/01/11 00:13:39;;;;;;;;;;;;;;;8.29;35.62;99625.44;4482262;32;33480;-91
2022/01/11 00:16:07;;;;;;;;;;;;;;;7.94;36.11;99636.41;4483148;32;34080;-90
2022/01/11 00:18:37;;;;;;;;;;;;;;;7.79;36.63;99635.09;4483096;32;34176;-91
2022/01/11 00:21:04;;;;;;;;;;;;;;;8.03;36.09;99634.09;4484278;32;34368;-91
2022/01/11 00:25:59;;;;;;;;;;;;;;;7.28;37.43;99635.19;4484672;32;34010;-90
2022/01/11 00:28:27;;;;;;;;;;;;;;;7.83;36.60;99635.22;4483117;32;34086;-90
2022/01/11 00:30:55;;;;;;;;;;;;;;;7.93;36.28;99639.84;4484309;32;35195;-90
2022/01/11 00:33:30;;;;;;;;;;;;;;;7.22;37.53;99650.47;4470194;32;33082;-90
2022/01/11 00:36:00;;;;;;;;;;;;;;;7.04;38.02;99661.00;4483774;32;35015;-90
2022/01/11 00:38:28;;;;;;;;;;;;;;;6.78;38.21;99654.97;4484325;31;34484;-89
2022/01/11 00:40:58;;;;;;;;;;;;;;;7.42;37.29;99664.00;4481453;32;34409;-90
2022/01/11 00:43:26;;;;;;;;;;;;;;;7.23;37.57;99664.22;4483284;32;32276;-90
2022/01/11 00:45:53;;;;;;;;;;;;;;;8.01;36.12;99666.75;4483732;32;33448;-90
2022/01/11 00:48:21;;;;;;;;;;;;;;;8.00;36.22;99671.06;4484302;32;33850;-90
2022/01/11 00:50:49;;;;;;;;;;;;;;;8.07;35.99;99673.81;4484012;32;34189;-91
2022/01/11 00:53:16;;;;;;;;;;;;;;;7.15;37.42;99669.12;4483457;32;33210;-90
2022/01/11 00:55:44;;;;;;;;;;;;;;;7.66;36.33;99674.28;4484335;32;34365;-90
2022/01/11 00:58:11;;;;;;;;;;;;;;;8.12;35.66;99670.56;4483632;32;34134;-89
2022/01/11 01:00:38;;;;;;;;;;;;;;;8.32;35.38;99678.91;4484254;32;34427;-90
2022/01/11 01:03:06;;;;;;;;;;;;;;;8.33;35.20;99683.22;4483982;32;33572;-90
2022/01/11 01:05:34;;;;;;;;;;;;;;;8.02;35.57;99689.16;4482822;32;34014;-90
2022/01/11 01:08:02;;;;;;;;;;;;;;;8.02;35.78;99684.00;4482359;32;34492;-90
2022/01/11 01:10:35;;;;;;;;;;;;;;;7.72;35.91;99689.94;4483385;32;35324;-90
2022/01/11 01:13:04;;;;;;;;;;;;;;;7.76;35.98;99696.97;4482959;32;33334;-91
2022/01/11 01:15:34;;;;;;;;;;;;;;;7.65;36.26;99698.34;4483145;32;34178;-90
2022/01/11 01:18:05;;;;;;;;;;;;;;;7.79;36.09;99698.78;4483972;32;34180;-90
2022/01/11 01:20:33;;;;;;;;;;;;;;;7.98;35.86;99703.69;4482616;32;34730;-90
2022/01/11 01:23:00;;;;;;;;;;;;;;;7.94;35.83;99698.38;4481840;32;32931;-90
2022/01/11 01:25:28;;;;;;;;;;;;;;;7.72;36.36;99697.69;4483313;32;34782;-90
2022/01/11 01:27:56;;;;;;;;;;;;;;;8.10;35.65;99698.03;4483418;32;34852;-87
2022/01/11 01:30:23;;;;;;;;;;;;;;;7.72;36.22;99705.44;4482320;32;33609;-90
2022/01/11 01:32:51;;;;;;;;;;;;;;;7.95;35.87;99701.00;4482333;32;33134;-90
2022/01/11 01:35:19;;;;;;;;;;;;;;;6.33;38.16;99711.69;4482127;32;35027;-90
2022/01/11 01:37:47;;;;;;;;;;;;;;;7.67;36.05;99701.81;4483376;31;34194;-91
2022/01/11 01:40:17;;;;;;;;;;;;;;;6.08;38.00;99711.56;4483612;32;35268;-91
2022/01/11 01:42:44;;;;;;;;;;;;;;;6.52;37.17;99709.81;4469437;32;33557;-90
2022/01/11 01:45:12;;;;;;;;;;;;;;;7.14;37.17;99707.75;4483719;32;34942;-90
2022/01/11 01:47:39;;;;;;;;;;;;;;;6.95;37.51;99708.81;4483184;32;34136;-90
2022/01/11 01:50:07;;;;;;;;;;;;;;;7.46;36.86;99711.44;4482369;32;34179;-90
2022/01/11 01:52:35;;;;;;;;;;;;;;;6.57;37.80;99716.88;4483900;32;33573;-90
2022/01/11 01:55:03;;;;;;;;;;;;;;;6.43;37.82;99719.75;4482041;32;34908;-90
2022/01/11 01:57:30;;;;;;;;;;;;;;;6.59;38.57;99722.06;4483905;32;35292;-90
2022/01/11 01:59:57;;;;;;;;;;;;;;;5.92;38.58;99714.31;4483679;31;34637;-89
2022/01/11 02:02:24;;;;;;;;;;;;;;;7.12;37.90;99714.53;4481621;32;33676;-91
2022/01/11 02:04:54;;;;;;;;;;;;;;;7.85;36.79;99705.84;4483133;32;34251;-90
2022/01/11 02:07:21;;;;;;;;;;;;;;;8.13;36.07;99710.16;4483806;32;34465;-90
2022/01/11 02:09:48;;;;;;;;;;;;;;;8.09;35.22;99711.78;4480885;32;34531;-91
2022/01/11 02:12:16;;;;;;;;;;;;;;;8.46;35.23;99715.53;4482677;32;33717;-90
2022/01/11 02:14:43;;;;;;;;;;;;;;;8.50;35.74;99715.66;4482144;32;34086;-91
2022/01/11 02:17:10;;;;;;;;;;;;;;;8.18;36.37;99719.84;4482442;32;36896;-91
2022/01/11 02:19:37;;;;;;;;;;;;;;;8.40;35.52;99712.75;4483457;32;34215;-91
2022/01/11 02:22:05;;;;;;;;;;;;;;;8.41;36.12;99720.56;4482831;32;34535;-90
2022/01/11 02:24:33;;;;;;;;;;;;;;;8.39;36.05;99716.16;4483479;32;33838;-90
2022/01/11 02:27:01;;;;;;;;;;;;;;;8.52;35.31;99718.28;4484069;32;34222;-90
2022/01/11 02:29:28;;;;;;;;;;;;;;;7.47;35.93;99719.25;4483433;32;34618;-90
2022/01/11 02:31:55;;;;;;;;;;;;;;;7.82;36.69;99721.22;4482993;32;34450;-90
2022/01/11 02:34:23;;;;;;;;;;;;;;;8.16;36.19;99713.72;4483180;32;34166;-90
2022/01/11 02:36:51;;;;;;;;;;;;;;;8.03;35.62;99716.72;4483608;31;33937;-90
2022/01/11 02:39:19;;;;;;;;;;;;;;;8.42;34.91;99722.31;4483630;32;34458;-90
2022/01/11 02:41:51;;;;;;;;;;;;;;;8.11;35.66;99723.03;4479824;32;32094;-89
2022/01/11 02:44:19;;;;;;;;;;;;;;;8.26;35.48;99722.66;4483591;32;34061;-90
2022/01/11 02:46:46;;;;;;;;;;;;;;;8.19;35.29;99725.88;4483569;32;35240;-90
2022/01/11 02:49:14;;;;;;;;;;;;;;;7.85;35.22;99734.25;4482801;32;35178;-91
2022/01/11 02:51:42;;;;;;;;;;;;;;;7.93;35.19;99725.91;4483497;32;34433;-90
2022/01/11 02:54:09;;;;;;;;;;;;;;;8.23;34.93;99730.28;4482011;32;35116;-90
2022/01/11 02:56:37;;;;;;;;;;;;;;;8.59;34.31;99730.56;4482139;32;34301;-90
2022/01/11 02:59:05;;;;;;;;;;;;;;;8.18;34.82;99726.66;4483015;32;34228;-88
2022/01/11 03:01:32;;;;;;;;;;;;;;;8.26;34.81;99720.06;4483355;32;33419;-90
2022/01/11 03:03:59;;;;;;;;;;;;;;;8.31;34.40;99726.25;4482698;32;34182;-89
2022/01/11 03:06:30;;;;;;;;;;;;;;;7.95;35.04;99734.56;4479152;32;34417;-89
2022/01/11 03:08:57;;;;;;;;;;;;;;;7.89;35.17;99738.69;4483234;32;35300;-89
2022/01/11 03:11:31;;;;;;;;;;;;;;;7.28;36.12;99742.66;4483029;32;33475;-90
2022/01/11 03:14:00;;;;;;;;;;;;;;;7.06;36.72;99747.03;4483215;32;34258;-90
2022/01/11 03:16:27;;;;;;;;;;;;;;;6.82;37.24;99756.47;4479122;32;34127;-91
2022/01/11 03:18:55;;;;;;;;;;;;;;;6.25;38.60;99764.59;4483141;32;34226;-90
2022/01/11 03:21:23;;;;;;;;;;;;;;;5.85;38.98;99772.37;4483020;32;33681;-91
2022/01/11 03:23:50;;;;;;;;;;;;;;;5.52;40.72;99767.56;4483124;32;34338;-90
2022/01/11 03:26:20;;;;;;;;;;;;;;;4.44;42.87;99778.16;4482377;32;34423;-91
2022/01/11 03:28:47;;;;;;;;;;;;;;;4.53;43.36;99779.44;4482834;32;35223;-91
2022/01/11 03:31:15;;;;;;;;;;;;;;;5.14;42.00;99783.91;4482337;32;34257;-91
2022/01/11 03:33:43;;;;;;;;;;;;;;;5.73;40.48;99770.16;4483252;32;34189;-91
2022/01/11 03:36:11;;;;;;;;;;;;;;;6.28;39.13;99777.56;4481986;32;34339;-91
2022/01/11 03:38:38;;;;;;;;;;;;;;;5.41;41.18;99785.91;4482687;32;35338;-88
2022/01/11 03:41:05;;;;;;;;;;;;;;;5.65;40.72;99783.53;4482838;32;33641;-90
2022/01/11 03:43:33;;;;;;;;;;;;;;;6.06;40.07;99780.09;4482384;32;34097;-90
2022/01/11 03:46:00;;;;;;;;;;;;;;;6.69;38.36;99774.84;4482096;32;34241;-90
2022/01/11 03:48:28;;;;;;;;;;;;;;;6.55;38.77;99772.63;4482019;32;34312;-91
2022/01/11 03:50:56;;;;;;;;;;;;;;;6.71;38.36;99779.25;4483057;32;33201;-90
2022/01/11 03:53:29;;;;;;;;;;;;;;;6.81;37.65;99776.19;4483148;32;33898;-90
2022/01/11 03:56:09;;;;;;;;;;;;;;;6.84;37.81;99780.56;4474355;32;34899;-90
2022/01/11 03:58:37;;;;;;;;;;;;;;;6.32;38.65;99789.75;4482445;32;34212;-89
2022/01/11 04:01:05;;;;;;;;;;;;;;;6.51;38.43;99795.63;4482430;32;34444;-89
2022/01/11 04:03:32;;;;;;;;;;;;;;;6.97;37.32;99792.22;4482702;32;33954;-90
2022/01/11 04:06:00;;;;;;;;;;;;;;;7.51;36.21;99795.91;4482356;32;35186;-91
2022/01/11 04:08:27;;;;;;;;;;;;;;;7.41;36.37;99800.69;4482421;32;34592;-90
2022/01/11 04:10:54;;;;;;;;;;;;;;;6.62;37.46;99798.62;4482359;32;34515;-89
2022/01/11 04:13:39;;;;;;;;;;;;;;;7.31;36.36;99800.38;4482443;32;35196;-91
2022/01/11 04:16:07;;;;;;;;;;;;;;;7.59;35.80;99798.75;4480751;32;33909;-88
2022/01/11 04:18:35;;;;;;;;;;;;;;;7.35;36.11;99797.88;4482295;32;35226;-90
2022/01/11 04:21:02;;;;;;;;;;;;;;;7.64;35.59;99804.94;4468095;32;31859;-91
2022/01/11 04:23:30;;;;;;;;;;;;;;;7.61;35.53;99804.84;4480491;32;33962;-90
2022/01/11 04:25:57;;;;;;;;;;;;;;;7.61;35.41;99799.66;4482277;32;33452;-90
2022/01/11 04:28:25;;;;;;;;;;;;;;;7.57;35.55;99805.56;4482141;32;34018;-90
2022/01/11 04:30:57;;;;;;;;;;;;;;;7.21;35.67;99803.44;4481788;32;33495;-91
2022/01/11 04:33:25;;;;;;;;;;;;;;;7.02;36.10;99806.16;4482645;32;33763;-91
2022/01/11 04:35:53;;;;;;;;;;;;;;;7.06;35.92;99815.78;4481037;32;34457;-90
2022/01/11 04:38:21;;;;;;;;;;;;;;;7.25;35.76;99807.88;4481666;32;34061;-89
2022/01/11 04:40:49;;;;;;;;;;;;;;;7.15;36.01;99818.66;4482324;32;33702;-90
2022/01/11 04:43:16;;;;;;;;;;;;;;;7.04;36.02;99825.13;4482194;32;33925;-90
2022/01/11 04:45:44;;;;;;;;;;;;;;;7.40;35.51;99829.91;4481572;32;35178;-89
2022/01/11 04:48:11;;;;;;;;;;;;;;;7.29;35.62;99834.66;4481649;32;35280;-90
2022/01/11 04:50:39;;;;;;;;;;;;;;;7.18;35.68;99838.53;4481852;32;33426;-90
2022/01/11 04:53:06;;;;;;;;;;;;;;;6.33;37.44;99839.56;4482336;32;34719;-88
2022/01/11 04:55:34;;;;;;;;;;;;;;;6.28;37.60;99843.63;4480586;32;33793;-87
2022/01/11 04:58:02;;;;;;;;;;;;;;;6.74;36.88;99850.63;4481611;32;34401;-89
2022/01/11 05:00:29;;;;;;;;;;;;;;;7.00;36.11;99843.88;4482084;32;33537;-88
2022/01/11 05:02:58;;;;;;;;;;;;;;;6.67;36.66;99839.22;4482590;32;33997;-90
2022/01/11 05:05:28;;;;;;;;;;;;;;;6.99;35.98;99850.75;4483769;32;33531;-90
2022/01/11 05:07:56;;;;;;;;;;;;;;;6.71;36.26;99860.84;4483155;32;34146;-90
2022/01/11 05:10:23;;;;;;;;;;;;;;;6.96;36.20;99863.50;4483164;32;33511;-90
2022/01/11 05:12:51;;;;;;;;;;;;;;;7.15;35.91;99865.09;4482622;32;34046;-89
2022/01/11 05:15:18;;;;;;;;;;;;;;;7.48;35.19;99869.75;4483056;32;34216;-90
2022/01/11 05:17:45;;;;;;;;;;;;;;;6.88;35.94;99872.66;4484424;32;34605;-89
2022/01/11 05:20:13;;;;;;;;;;;;;;;7.00;36.02;99877.41;4483205;32;34374;-89
2022/01/11 05:22:42;;;;;;;;;;;;;;;7.47;34.94;99883.47;4483816;32;33754;-90
2022/01/11 05:25:11;;;;;;;;;;;;;;;7.25;35.29;99886.94;4483767;32;35285;-90
2022/01/11 05:27:39;;;;;;;;;;;;;;;7.20;35.44;99884.22;4483905;32;35017;-90
2022/01/11 05:30:08;;;;;;;;;;;;;;;6.60;36.07;99896.47;4482347;32;33069;-88
2022/01/11 05:32:35;;;;;;;;;;;;;;;6.64;35.98;99885.47;4482913;32;34274;-89
2022/01/11 05:35:03;;;;;;;;;;;;;;;6.94;35.48;99887.50;4483473;32;34279;-88
2022/01/11 05:37:31;;;;;;;;;;;;;;;7.08;35.37;99896.63;4482244;32;35149;-88
2022/01/11 05:39:58;;;;;;;;;;;;;;;6.64;35.74;99906.09;4483454;32;33620;-90
2022/01/11 05:42:26;;;;;;;;;;;;;;;6.90;35.41;99898.50;4480680;32;34955;-87
2022/01/11 05:44:53;;;;;;;;;;;;;;;6.66;35.61;99907.00;4474773;32;33847;-88
2022/01/11 05:47:22;;;;;;;;;;;;;;;6.75;35.66;99915.13;4484093;32;34741;-89
2022/01/11 05:49:50;;;;;;;;;;;;;;;6.42;36.32;99917.19;4482428;32;34079;-88
2022/01/11 05:52:17;;;;;;;;;;;;;;;6.43;36.08;99918.94;4483217;32;34969;-87
2022/01/11 05:54:44;;;;;;;;;;;;;;;6.54;35.91;99920.28;4482602;32;34156;-88
2022/01/11 05:57:12;;;;;;;;;;;;;;;5.68;37.22;99936.28;4473277;32;34486;-87
2022/01/11 05:59:40;;;;;;;;;;;;;;;6.21;36.37;99934.31;4484083;32;34464;-88
2022/01/11 06:02:07;;;;;;;;;;;;;;;6.27;36.41;99934.59;4483427;32;34089;-87
2022/01/11 06:04:35;;;;;;;;;;;;;;;5.61;37.31;99939.44;4481723;32;34083;-87
2022/01/11 06:07:02;;;;;;;;;;;;;;;4.22;39.97;99946.50;4478268;32;34600;-92
2022/01/11 06:09:29;;;;;;;;;;;;;;;5.13;38.10;99938.94;4481728;32;34032;-88
2022/01/11 06:11:57;;;;;;;;;;;;;;;5.71;37.20;99946.72;4477417;32;34993;-91
2022/01/11 06:14:25;;;;;;;;;;;;;;;5.01;38.22;99946.09;4481491;32;34251;-92
2022/01/11 06:16:52;;;;;;;;;;;;;;;4.64;39.29;99957.16;4469522;32;34463;-92
2022/01/11 06:19:19;;;;;;;;;;;;;;;5.54;37.60;99957.97;4483084;32;34156;-90
2022/01/11 06:21:49;;;;;;;;;;;;;;;5.83;36.95;99960.16;4481003;32;33881;-87
2022/01/11 06:24:16;;;;;;;;;;;;;;;5.02;38.51;99964.13;4483906;32;35097;-90
2022/01/11 06:26:44;;;;;;;;;;;;;;;5.35;37.79;99971.66;4482865;32;35026;-88
2022/01/11 06:29:11;;;;;;;;;;;;;;;5.72;36.96;99984.53;4481427;32;34331;-87
2022/01/11 06:31:39;;;;;;;;;;;;;;;6.14;36.13;99987.28;4483456;32;34228;-92
2022/01/11 06:34:06;;;;;;;;;;;;;;;5.52;37.11;99991.31;4483602;32;34414;-91
2022/01/11 06:36:34;;;;;;;;;;;;;;;6.08;36.28;99990.44;4483599;32;34464;-90
2022/01/11 06:39:02;;;;;;;;;;;;;;;5.87;36.65;99999.75;4482401;32;33072;-91
2022/01/11 06:41:30;;;;;;;;;;;;;;;6.17;36.41;100005.41;4483477;32;33908;-92
2022/01/11 06:43:58;;;;;;;;;;;;;;;6.23;35.99;100015.97;4483569;32;34961;-91
2022/01/11 06:46:28;;;;;;;;;;;;;;;6.30;35.83;100015.44;4482837;32;34662;-90
2022/01/11 06:48:57;;;;;;;;;;;;;;;6.55;35.31;100019.03;4483483;32;34260;-90
2022/01/11 06:51:24;;;;;;;;;;;;;;;6.30;35.52;100018.00;4481739;32;34029;-91
2022/01/11 06:53:51;;;;;;;;;;;;;;;6.26;35.85;100016.13;4483561;32;35243;-89
2022/01/11 06:56:20;;;;;;;;;;;;;;;6.13;35.80;100026.69;4483039;32;34413;-91
2022/01/11 06:58:48;;;;;;;;;;;;;;;5.42;37.44;100026.81;4483110;32;33486;-92
2022/01/11 07:01:15;;;;;;;;;;;;;;;6.06;36.50;100032.34;4483108;32;34244;-91
2022/01/11 07:03:44;;;;;;;;;;;;;;;6.46;35.70;100034.13;4483394;32;34914;-91
2022/01/11 07:06:12;;;;;;;;;;;;;;;5.98;36.60;100028.56;4483208;32;34427;-87
2022/01/11 07:08:40;;;;;;;;;;;;;;;6.03;36.50;100040.84;4483393;32;33610;-91
2022/01/11 07:11:07;;;;;;;;;;;;;;;5.78;36.90;100043.97;4483305;32;35086;-92
2022/01/11 07:13:35;;;;;;;;;;;;;;;6.09;36.51;100042.81;4483743;32;34344;-88
2022/01/11 07:16:02;;;;;;;;;;;;;;;6.21;36.21;100048.53;4483237;32;34595;-91
2022/01/11 07:18:30;;;;;;;;;;;;;;;6.15;36.62;100043.09;4483195;32;33502;-91
2022/01/11 07:20:58;;;;;;;;;;;;;;;6.22;36.36;100055.41;4483097;32;34942;-90
2022/01/11 07:23:25;;;;;;;;;;;;;;;6.48;35.67;100047.97;4482040;32;35105;-91
2022/01/11 07:25:53;;;;;;;;;;;;;;;4.79;38.30;100059.78;4483215;32;34365;-90
2022/01/11 07:28:20;;;;;;;;;;;;;;;5.33;37.95;100064.13;4482130;32;33443;-90
2022/01/11 07:30:48;;;;;;;;;;;;;;;3.99;39.89;100065.06;4482789;32;33944;-91
2022/01/11 07:33:16;;;;;;;;;;;;;;;4.56;39.15;100076.59;4483168;32;34111;-91
2022/01/11 07:35:44;;;;;;;;;;;;;;;4.48;38.50;100070.19;4483382;32;34472;-91
2022/01/11 07:38:12;;;;;;;;;;;;;;;5.13;37.63;100070.03;4482761;32;33056;-90
2022/01/11 07:40:39;;;;;;;;;;;;;;;4.93;37.21;100071.63;4483207;32;35280;-90
2022/01/11 07:43:09;;;;;;;;;;;;;;;4.47;37.15;100068.41;4483283;32;35287;-91
2022/01/11 07:45:36;;;;;;;;;;;;;;;4.80;37.60;100070.09;4482852;32;34521;-86
2022/01/11 07:48:04;;;;;;;;;;;;;;;5.10;37.14;100080.16;4482847;32;33783;-91
2022/01/11 07:50:32;;;;;;;;;;;;;;;5.57;35.43;100073.84;4483036;32;33944;-87
2022/01/11 07:53:00;;;;;;;;;;;;;;;4.97;36.69;100080.38;4482436;32;35371;-92
2022/01/11 07:55:28;;;;;;;;;;;;;;;6.00;35.03;100063.00;4482901;32;34521;-90
2022/01/11 07:57:55;;;;;;;;;;;;;;;6.04;35.21;100070.03;4483254;32;33442;-91
2022/01/11 08:00:24;;;;;;;;;;;;;;;6.02;35.21;100076.78;4482753;32;34249;-90
2022/01/11 08:02:52;;;;;;;;;;;;;;;5.37;35.96;100076.34;4482865;32;33967;-86
2022/01/11 08:05:21;;;;;;;;;;;;;;;5.13;36.73;100088.00;4481191;32;35205;-86
2022/01/11 08:07:50;;;;;;;;;;;;;;;4.44;37.74;100092.25;4482380;32;33320;-89
2022/01/11 08:10:18;;;;;;;;;;;;;;;3.90;38.64;100076.59;4482672;32;36865;-91
2022/01/11 08:12:50;;;;;;;;;;;;;;;3.34;39.86;100092.31;4482783;32;34234;-91
2022/01/11 08:15:18;;;;;;;;;;;;;;;4.54;38.45;100093.59;4483071;32;35493;-91
2022/01/11 08:17:47;;;;;;;;;;;;;;;3.79;38.64;100107.56;4468832;32;33489;-86
2022/01/11 08:20:15;;;;;;;;;;;;;;;4.18;38.38;100093.44;4482508;32;34929;-90
2022/01/11 08:22:43;;;;;;;;;;;;;;;3.36;39.38;100107.75;4482318;32;33863;-89
2022/01/11 08:25:10;;;;;;;;;;;;;;;3.30;39.87;100104.87;4482448;32;34304;-91
2022/01/11 08:27:39;;;;;;;;;;;;;;;4.82;37.11;100106.19;4481811;32;33655;-91
2022/01/11 08:30:06;;;;;;;;;;;;;;;4.72;36.90;100099.66;4477715;32;34258;-89
2022/01/11 08:32:34;;;;;;;;;;;;;;;4.79;36.76;100112.03;4466469;32;34518;-90
2022/01/11 08:35:03;;;;;;;;;;;;;;;5.80;35.57;100103.22;4473913;32;35246;-91
2022/01/11 08:37:31;;;;;;;;;;;;;;;5.03;36.91;100116.62;4484417;32;33628;-91
2022/01/11 08:39:59;;;;;;;;;;;;;;;5.96;34.76;100112.56;4483746;32;34085;-86
2022/01/11 08:42:29;;;;;;;;;;;;;;;5.83;35.25;100113.62;4484396;32;34805;-86
2022/01/11 08:44:57;;;;;;;;;;;;;;;5.57;34.72;100117.59;4479443;32;35146;-86
2022/01/11 08:47:30;;;;;;;;;;;;;;;5.75;35.36;100118.44;4475266;32;33512;-92
2022/01/11 08:49:59;;;;;;;;;;;;;;;4.03;37.95;100120.88;4469151;32;33401;-91
2022/01/11 08:52:28;;;;;;;;;;;;;;;5.23;36.02;100126.22;4454356;32;33324;-91
2022/01/11 08:54:56;;;;;;;;;;;;;;;5.54;35.56;100122.56;4468691;32;35167;-90
2022/01/11 08:57:24;;;;;;;;;;;;;;;5.01;36.22;100123.41;4480925;32;33202;-89
2022/01/11 08:59:51;;;;;;;;;;;;;;;5.20;35.18;100114.91;4484389;32;33730;-86
2022/01/11 09:02:21;;;;;;;;;;;;;;;5.32;35.33;100118.94;4484109;32;34232;-85
2022/01/11 09:04:52;;;;;;;;;;;;;;;5.07;35.73;100124.56;4482615;32;35273;-87
2022/01/11 09:07:20;;;;;;;;;;;;;;;4.69;35.70;100135.47;4481495;32;33515;-87
2022/01/11 09:09:47;;;;;;;;;;;;;;;4.27;37.25;100124.72;4473514;32;35007;-86
2022/01/11 09:12:15;;;;;;;;;;;;;;;5.17;36.05;100131.06;4481987;32;35377;-89
2022/01/11 09:14:42;;;;;;;;;;;;;;;5.38;36.08;100133.81;4481969;32;34410;-85
2022/01/11 09:17:10;;;;;;;;;;;;;;;5.91;35.17;100125.19;4483448;32;34018;-85
2022/01/11 09:19:38;;;;;;;;;;;;;;;5.78;35.27;100126.31;4483691;32;35079;-89
2022/01/11 09:22:07;;;;;;;;;;;;;;;6.42;33.57;100119.81;4482986;32;34225;-86
2022/01/11 09:24:36;;;;;;;;;;;;;;;7.13;32.15;100119.44;4482694;32;32922;-85
2022/01/11 09:27:04;;;;;;;;;;;;;;;6.81;32.78;100121.53;4469259;32;33551;-88
2022/01/11 09:29:32;;;;;;;;;;;;;;;6.79;33.08;100123.19;4483907;32;34117;-88
2022/01/11 09:32:00;;;;;;;;;;;;;;;6.31;33.26;100122.78;4483106;32;34073;-88
2022/01/11 09:34:28;;;;;;;;;;;;;;;6.60;33.42;100123.19;4483542;32;35111;-85
2022/01/11 09:36:56;;;;;;;;;;;;;;;5.77;34.83;100119.41;4484163;31;34116;-86
2022/01/11 09:39:25;;;;;;;;;;;;;;;6.81;32.08;100121.53;4476069;32;33631;-89
2022/01/11 09:41:53;;;;;;;;;;;;;;;6.61;32.53;100114.63;4483209;32;35230;-86
2022/01/11 09:44:22;;;;;;;;;;;;;;;5.95;34.18;100118.53;4482453;32;34579;-89
2022/01/11 09:46:50;;;;;;;;;;;;;;;5.92;34.14;100120.94;4481267;32;33793;-90
2022/01/11 09:49:18;;;;;;;;;;;;;;;6.18;34.37;100120.47;4482284;32;33623;-91
2022/01/11 09:51:45;;;;;;;;;;;;;;;6.40;32.97;100121.41;4482779;32;35223;-90
2022/01/11 09:54:13;;;;;;;;;;;;;;;5.78;34.55;100122.84;4473969;32;34210;-90
2022/01/11 09:56:41;;;;;;;;;;;;;;;6.36;33.24;100115.25;4480342;32;33766;-87
2022/01/11 09:59:09;;;;;;;;;;;;;;;5.91;34.36;100108.84;4479723;32;33743;-92
2022/01/11 10:01:38;;;;;;;;;;;;;;;6.20;33.83;100105.94;4467830;32;35552;-88
2022/01/11 10:04:18;;;;;;;;;;;;;;;5.96;34.02;100107.44;4483130;32;34494;-87
2022/01/11 10:06:51;;;;;;;;;;;;;;;4.86;36.20;100108.97;4468248;32;33409;-86
2022/01/11 10:09:21;;;;;;;;;;;;;;;5.62;34.99;100108.37;4481404;32;34065;-90
2022/01/11 10:11:49;;;;;;;;;;;;;;;5.18;35.91;100112.25;4482357;32;34355;-92
2022/01/11 10:14:25;;;;;;;;;;;;;;;5.98;34.26;100110.94;4483588;32;34555;-87
2022/01/11 10:17:08;;;;;;;;;;;;;;;4.69;36.69;100125.19;4482684;32;33541;-91
2022/01/11 10:19:37;;;;;;;;;;;;;;;5.22;35.99;100123.56;4483163;32;34909;-88
2022/01/11 10:22:06;;;;;;;;;;;;;;;6.14;34.48;100107.34;4482258;32;34602;-88
2022/01/11 10:24:38;;;;;;;;;;;;;;;5.71;35.10;100120.78;4483573;32;33694;-88
2022/01/11 10:27:08;;;;;;;;;;;;;;;5.99;34.40;100113.59;4483391;32;34469;-86
2022/01/11 10:29:38;;;;;;;;;;;;;;;6.40;33.79;100100.81;4480978;32;33918;-88
2022/01/11 10:32:22;;;;;;;;;;;;;;;5.16;36.10;100116.44;4482365;32;35380;-91
2022/01/11 10:34:52;;;;;;;;;;;;;;;4.79;36.86;100119.75;4467945;31;34650;-88
2022/01/11 10:37:28;;;;;;;;;;;;;;;5.25;36.06;100116.88;4479478;31;32458;-89
2022/01/11 10:40:01;;;;;;;;;;;;;;;5.76;35.03;100111.63;4482971;32;33791;-88
2022/01/11 10:42:34;;;;;;;;;;;;;;;5.92;34.82;100106.41;4482218;32;33972;-89
2022/01/11 10:45:03;;;;;;;;;;;;;;;5.70;34.94;100107.06;4481708;32;34493;-89
2022/01/11 10:47:33;;;;;;;;;;;;;;;5.63;35.12;100110.12;4481433;32;34362;-87
2022/01/11 10:50:03;;;;;;;;;;;;;;;6.20;34.65;100113.69;4483067;32;34140;-89
2022/01/11 10:52:32;;;;;;;;;;;;;;;5.53;35.39;100107.94;4482582;32;34201;-86
2022/01/11 10:55:05;;;;;;;;;;;;;;;6.11;34.40;100107.25;4481078;32;34483;-86
2022/01/11 10:57:33;;;;;;;;;;;;;;;6.24;33.96;100113.00;4482621;32;33522;-86
2022/01/11 11:00:04;;;;;;;;;;;;;;;5.76;35.00;100111.63;4482525;32;34331;-86
2022/01/11 11:02:31;;;;;;;;;;;;;;;5.60;35.40;100122.84;4478018;32;34073;-91
2022/01/11 11:05:16;;;;;;;;;;;;;;;5.77;35.10;100114.25;4480351;32;34494;-87
2022/01/11 11:07:44;;;;;;;;;;;;;;;5.75;35.42;100122.69;4473900;32;34428;-89
2022/01/11 11:10:12;;;;;;;;;;;;;;;6.10;34.54;100111.53;4473191;32;33786;-86
2022/01/11 11:12:40;;;;;;;;;;;;;;;5.32;35.98;100116.38;4476428;32;34227;-85
2022/01/11 11:15:09;;;;;;;;;;;;;;;6.31;34.68;100116.75;4480909;32;35232;-90
2022/01/11 11:17:57;;;;;;;;;;;;;;;6.56;33.95;100109.28;4482135;32;33661;-89
2022/01/11 11:20:25;;;;;;;;;;;;;;;6.66;33.84;100110.56;4483238;32;34548;-92
2022/01/11 11:22:52;;;;;;;;;;;;;;;5.83;35.02;100122.28;4483176;32;35291;-87
2022/01/11 11:25:19;;;;;;;;;;;;;;;6.10;34.85;100111.53;4477277;32;34300;-85
2022/01/11 11:27:46;;;;;;;;;;;;;;;5.93;34.86;100118.44;4481770;32;34153;-90
2022/01/11 11:30:14;;;;;;;;;;;;;;;6.16;34.32;100122.06;4482987;32;34237;-89
2022/01/11 11:32:42;;;;;;;;;;;;;;;5.98;35.06;100110.94;4469329;32;33921;-87
2022/01/11 11:35:09;;;;;;;;;;;;;;;7.60;32.28;100106.72;4467591;32;35277;-88
2022/01/11 11:37:38;;;;;;;;;;;;;;;5.97;34.76;100104.03;4478394;31;33956;-88
2022/01/11 11:40:05;;;;;;;;;;;;;;;5.89;35.30;100111.37;4483112;32;34299;-88
2022/01/11 11:42:33;;;;;;;;;;;;;;;6.10;35.21;100106.38;4480668;32;34942;-90
2022/01/11 11:45:00;;;;;;;;;;;;;;;6.68;33.96;100114.09;4478890;32;34423;-89
2022/01/11 11:47:34;;;;;;;;;;;;;;;6.83;33.67;100109.59;4482143;32;33704;-87
2022/01/11 11:50:04;;;;;;;;;;;;;;;6.95;33.95;100108.34;4482802;32;34978;-85
2022/01/11 11:52:34;;;;;;;;;;;;;;;7.30;33.51;100100.38;4481960;32;34415;-90
2022/01/11 11:55:03;;;;;;;;;;;;;;;6.58;34.02;100107.66;4482264;32;34629;-86
2022/01/11 11:57:31;;;;;;;;;;;;;;;6.55;34.05;100104.97;4481676;32;34407;-89
2022/01/11 12:00:00;;;;;;;;;;;;;;;6.86;33.81;100105.37;4482466;32;34746;-86
2022/01/11 12:02:39;;;;;;;;;;;;;;;6.64;34.30;100107.06;4474911;32;34518;-90
2022/01/11 12:05:09;;;;;;;;;;;;;;;6.43;34.54;100116.41;4470087;32;35204;-87
2022/01/11 12:07:44;;;;;;;;;;;;;;;6.29;35.14;100102.94;4480736;32;34238;-88
2022/01/11 12:10:16;;;;;;;;;;;;;;;5.75;36.00;100108.13;4484317;32;34273;-87
2022/01/11 12:12:49;;;;;;;;;;;;;;;6.01;35.65;100113.66;4484789;32;35227;-89
2022/01/11 12:15:21;;;;;;;;;;;;;;;6.30;34.91;100110.72;4479138;32;34616;-87
2022/01/11 12:17:49;;;;;;;;;;;;;;;5.68;35.82;100118.94;4482883;32;34564;-89
2022/01/11 12:20:35;;;;;;;;;;;;;;;6.46;35.04;100125.16;4485161;32;34879;-90
2022/01/11 12:23:02;;;;;;;;;;;;;;;6.30;34.91;100110.72;4485186;32;35374;-88
2022/01/11 12:25:30;;;;;;;;;;;;;;;7.14;33.80;100105.72;4486919;32;34575;-87
2022/01/11 12:27:58;;;;;;;;;;;;;;;7.42;33.09;100107.72;4482507;32;33890;-87
2022/01/11 12:30:26;;;;;;;;;;;;;;;8.07;32.11;100105.06;4485013;32;34757;-90
2022/01/11 12:33:13;;;;;;;;;;;;;;;7.52;32.90;100109.00;4475425;32;34071;-89
2022/01/11 12:35:49;;;;;;;;;;;;;;;7.24;33.40;100107.88;4473048;32;35282;-86
2022/01/11 12:38:16;;;;;;;;;;;;;;;7.18;33.46;100105.03;4487265;31;33815;-87
2022/01/11 12:40:44;;;;;;;;;;;;;;;6.51;34.26;100112.47;4487406;32;34267;-87
2022/01/11 12:43:19;;;;;;;;;;;;;;;8.07;32.12;100105.97;4487275;32;35260;-83
2022/01/11 12:46:01;;;;;;;;;;;;;;;7.92;31.95;100105.41;4471664;32;34949;-88
2022/01/11 12:48:50;;;;;;;;;;;;;;;6.88;33.95;100109.78;4477282;32;33741;-88
2022/01/11 12:51:25;;;;;;;;;;;;;;;7.22;33.25;100117.25;4487411;32;34376;-84
2022/01/11 12:54:10;;;;;;;;;;;;;;;7.86;32.42;100112.91;4487086;32;35039;-86
2022/01/11 12:56:39;;;;;;;;;;;;;;;8.31;31.67;100111.16;4487133;32;34402;-85
2022/01/11 12:59:06;;;;;;;;;;;;;;;8.43;31.67;100121.97;4481244;32;183756;-89
2022/01/11 13:01:34;;;;;;;;;;;;;;;7.71;32.24;100115.75;4486846;32;33569;-89
2022/01/11 13:04:02;;;;;;;;;;;;;;;7.86;31.88;100115.47;4481056;32;35276;-89
2022/01/11 13:06:30;;;;;;;;;;;;;;;7.40;32.90;100109.38;4479186;32;33745;-85